createdAt,value
2023-05-21T00:01:08.565Z,41.94
2023-05-21T00:06:10.167Z,42.02
2023-05-21T00:11:11.758Z,42.06
2023-05-21T00:16:13.439Z,42.31
2023-05-21T00:21:18.138Z,42.36
2023-05-21T00:26:21.608Z,42.77
2023-05-21T00:31:24.154Z,42.81
2023-05-21T00:36:25.845Z,42.97
2023-05-21T00:41:27.407Z,43.20
2023-05-21T00:46:29.557Z,42.97
2023-05-21T00:51:31.384Z,43.26
2023-05-21T00:56:33.157Z,43.39
2023-05-21T01:01:46.351Z,43.22
2023-05-21T01:06:48.394Z,43.67
2023-05-21T01:11:51.863Z,43.64
2023-05-21T01:16:53.795Z,43.92
2023-05-21T01:22:05.590Z,44.05
2023-05-21T01:27:07.748Z,43.99
2023-05-21T01:32:21.699Z,44.19
2023-05-21T01:37:29.970Z,44.52
2023-05-21T01:42:34.576Z,44.38
2023-05-21T01:47:37.351Z,44.59
2023-05-21T01:52:39.021Z,45.00
2023-05-21T01:57:40.552Z,45.20
2023-05-21T02:02:42.321Z,44.99
2023-05-21T02:07:45.993Z,45.29
2023-05-21T02:12:47.651Z,45.28
2023-05-21T02:17:51.275Z,45.46
2023-05-21T02:22:52.945Z,45.25
2023-05-21T02:27:56.941Z,45.71
2023-05-21T02:32:59.471Z,45.46
2023-05-21T02:38:03.119Z,45.60
2023-05-21T02:43:05.123Z,45.89
2023-05-21T02:48:07.242Z,45.74
2023-05-21T02:53:13.511Z,45.85
2023-05-21T02:58:15.111Z,46.07
2023-05-21T03:03:16.977Z,46.07
2023-05-21T03:08:18.674Z,46.26
2023-05-21T03:13:20.372Z,46.04
2023-05-21T03:18:23.505Z,46.17
2023-05-21T03:23:25.097Z,46.45
2023-05-21T03:28:26.676Z,46.19
2023-05-21T03:33:28.281Z,46.44
2023-05-21T03:38:30.025Z,46.07
2023-05-21T03:43:31.908Z,46.12
2023-05-21T03:48:33.695Z,46.48
2023-05-21T03:53:37.003Z,46.32
2023-05-21T03:58:38.899Z,46.53
2023-05-21T04:03:41.268Z,46.73
2023-05-21T04:08:44.529Z,46.99
2023-05-21T04:13:46.165Z,47.01
2023-05-21T04:18:48.848Z,47.10
2023-05-21T04:23:53.872Z,47.04
2023-05-21T04:29:03.693Z,47.18
2023-05-21T04:34:05.363Z,47.06
2023-05-21T04:39:07.278Z,47.25
2023-05-21T04:44:10.150Z,47.33
2023-05-21T04:49:12.242Z,47.65
2023-05-21T04:54:13.808Z,47.62
2023-05-21T04:59:15.889Z,47.63
2023-05-21T05:04:17.641Z,47.89
2023-05-21T05:09:21.524Z,47.66
2023-05-21T05:14:23.054Z,47.82
2023-05-21T05:19:25.318Z,47.79
2023-05-21T05:24:26.906Z,47.72
2023-05-21T05:29:28.517Z,47.83
2023-05-21T05:34:30.152Z,47.80
2023-05-21T05:39:31.762Z,47.70
2023-05-21T05:44:33.426Z,47.99
2023-05-21T05:49:36.339Z,47.92
2023-05-21T05:54:38.392Z,48.22
2023-05-21T05:59:39.988Z,48.17
2023-05-21T06:04:42.591Z,47.81
2023-05-21T06:09:44.303Z,47.66
2023-05-21T06:14:47.353Z,47.70
2023-05-21T06:19:49.464Z,47.35
2023-05-21T06:24:51.191Z,47.45
2023-05-21T06:29:52.944Z,46.88
2023-05-21T06:34:54.577Z,46.90
2023-05-21T06:39:56.389Z,46.64
2023-05-21T06:44:58.087Z,46.28
2023-05-21T06:50:25.812Z,46.56
2023-05-21T06:55:27.785Z,46.35
2023-05-21T07:00:51.080Z,46.28
2023-05-21T07:05:54.038Z,46.17
2023-05-21T07:10:56.410Z,46.11
2023-05-21T07:15:58.180Z,45.85
2023-05-21T07:21:01.072Z,45.98
2023-05-21T07:26:03.193Z,45.63
2023-05-21T07:31:05.010Z,45.46
2023-05-21T07:36:12.491Z,45.46
2023-05-21T07:41:16.482Z,45.09
2023-05-21T07:46:19.901Z,45.14
2023-05-21T07:51:25.823Z,45.16
2023-05-21T07:56:27.793Z,45.14
2023-05-21T08:01:33.136Z,45.26
2023-05-21T08:06:35.347Z,45.02
2023-05-21T08:11:37.095Z,44.99
2023-05-21T08:16:38.938Z,45.03
2023-05-21T08:21:40.836Z,44.47
2023-05-21T08:26:43.795Z,44.77
2023-05-21T08:31:45.483Z,44.76
2023-05-21T08:36:47.985Z,44.45
2023-05-21T08:42:42.926Z,44.52
2023-05-21T08:47:54.177Z,43.99
2023-05-21T08:52:56.349Z,43.93
2023-05-21T08:57:58.184Z,43.68
2023-05-21T09:03:02.668Z,43.49
2023-05-21T09:08:29.707Z,43.48
2023-05-21T09:13:43.586Z,42.79
2023-05-21T09:18:51.151Z,42.22
2023-05-21T09:24:03.652Z,41.92
2023-05-21T09:29:05.436Z,41.83
2023-05-21T09:34:07.079Z,41.73
2023-05-21T09:39:08.843Z,41.82
2023-05-21T09:44:10.925Z,41.47
2023-05-21T09:49:26.754Z,41.35
2023-05-21T09:54:34.116Z,41.21
2023-05-21T09:59:39.417Z,40.58
2023-05-21T10:04:42.374Z,39.92
2023-05-21T10:09:47.676Z,39.13
2023-05-21T10:14:54.352Z,39.34
2023-05-21T10:19:57.023Z,39.26
2023-05-21T10:24:59.308Z,38.62
2023-05-21T10:30:01.775Z,38.04
2023-05-21T10:35:03.741Z,37.33
2023-05-21T10:40:06.072Z,37.81
2023-05-21T10:45:20.153Z,38.00
2023-05-21T10:50:58.947Z,37.74
2023-05-21T10:56:29.269Z,36.32
2023-05-21T11:01:35.584Z,35.64
2023-05-21T11:06:37.276Z,34.84
2023-05-21T11:11:52.837Z,34.81
2023-05-21T11:16:55.091Z,34.86
2023-05-21T11:21:56.812Z,34.86
2023-05-21T11:27:01.477Z,34.28
2023-05-21T11:32:03.226Z,34.77
2023-05-21T11:37:30.251Z,34.42
2023-05-21T11:42:33.795Z,33.91
2023-05-21T11:47:35.827Z,34.14
2023-05-21T11:52:38.177Z,33.27
2023-05-21T11:57:43.052Z,33.12
2023-05-21T12:02:47.325Z,32.97
2023-05-21T12:07:54.465Z,32.92
2023-05-21T12:12:57.520Z,32.75
2023-05-21T12:17:59.400Z,32.48
2023-05-21T12:23:01.115Z,32.78
2023-05-21T12:28:05.348Z,32.55
2023-05-21T12:33:07.094Z,32.54
2023-05-21T12:38:09.742Z,32.67
2023-05-21T12:43:11.451Z,32.33
2023-05-21T12:48:13.253Z,32.92
2023-05-21T12:53:14.795Z,31.64
2023-05-21T12:58:17.158Z,31.50
2023-05-21T13:03:19.253Z,31.29
2023-05-21T13:08:20.804Z,31.64
2023-05-21T13:13:22.303Z,31.79
2023-05-21T13:18:24.108Z,31.79
2023-05-21T13:23:25.827Z,31.59
2023-05-21T13:28:27.350Z,31.61
2023-05-21T13:33:29.058Z,31.20
2023-05-21T13:38:30.656Z,30.57
2023-05-21T13:43:32.278Z,30.59
2023-05-21T13:48:33.800Z,30.53
2023-05-21T13:53:35.372Z,30.33
2023-05-21T13:58:36.967Z,30.11
2023-05-21T14:03:38.592Z,30.32
2023-05-21T14:08:41.375Z,30.30
2023-05-21T14:13:43.236Z,30.03
2023-05-21T14:18:44.820Z,29.61
2023-05-21T14:23:46.460Z,29.18
2023-05-21T14:28:48.006Z,29.77
2023-05-21T14:33:49.588Z,29.60
2023-05-21T14:38:51.345Z,29.71
2023-05-21T14:43:53.499Z,29.35
2023-05-21T14:48:59.104Z,29.40
2023-05-21T14:54:00.832Z,29.44
2023-05-21T14:59:02.389Z,29.43
2023-05-21T15:04:04.355Z,28.96
2023-05-21T15:09:05.954Z,28.44
2023-05-21T15:14:07.488Z,28.03
2023-05-21T15:19:09.056Z,27.70
2023-05-21T15:24:11.521Z,27.83
2023-05-21T15:29:13.110Z,27.96
2023-05-21T15:34:15.173Z,27.54
2023-05-21T15:39:16.804Z,28.21
2023-05-21T15:44:18.368Z,27.26
2023-05-21T15:49:20.492Z,27.71
2023-05-21T15:54:22.128Z,27.27
2023-05-21T15:59:25.629Z,27.07
2023-05-21T16:04:27.218Z,26.55
2023-05-21T16:09:28.774Z,26.64
2023-05-21T16:14:30.379Z,26.69
2023-05-21T16:19:32.170Z,26.23
2023-05-21T16:24:33.830Z,26.11
2023-05-21T16:29:35.414Z,26.34
2023-05-21T16:34:36.999Z,26.39
2023-05-21T16:39:38.677Z,26.30
2023-05-21T16:44:40.245Z,25.96
2023-05-21T16:49:41.785Z,26.03
2023-05-21T16:54:48.525Z,25.92
2023-05-21T16:59:50.037Z,26.00
2023-05-21T17:04:51.568Z,26.10
2023-05-21T17:09:53.193Z,26.09
2023-05-21T17:14:54.778Z,25.68
2023-05-21T17:19:56.472Z,25.86
2023-05-21T17:24:58.734Z,25.29
2023-05-21T17:30:00.341Z,25.32
2023-05-21T17:35:02.459Z,25.33
2023-05-21T17:40:05.577Z,25.38
2023-05-21T17:45:07.578Z,25.22
2023-05-21T17:50:09.563Z,25.18
2023-05-21T17:55:11.276Z,24.79
2023-05-21T18:00:13.184Z,24.70
2023-05-21T18:05:14.725Z,24.78
2023-05-21T18:10:16.436Z,24.68
2023-05-21T18:15:18.093Z,24.63
2023-05-21T18:20:19.694Z,24.53
2023-05-21T18:25:21.452Z,24.60
2023-05-21T18:30:23.024Z,24.96
2023-05-21T18:35:24.734Z,25.38
2023-05-21T18:40:30.426Z,25.88
2023-05-21T18:45:33.196Z,26.32
2023-05-21T18:50:37.144Z,26.38
2023-05-21T18:55:38.853Z,26.48
2023-05-21T19:00:40.525Z,27.02
2023-05-21T19:05:42.304Z,27.19
2023-05-21T19:10:44.086Z,27.17
2023-05-21T19:15:47.944Z,27.48
2023-05-21T19:20:49.605Z,27.87
2023-05-21T19:25:51.416Z,28.24
2023-05-21T19:30:52.989Z,28.22
2023-05-21T19:35:54.574Z,28.33
2023-05-21T19:40:56.178Z,28.74
2023-05-21T19:45:57.759Z,28.90
2023-05-21T19:50:59.459Z,29.26
2023-05-21T19:56:01.003Z,29.38
2023-05-21T20:01:03.546Z,29.67
2023-05-21T20:06:05.341Z,30.13
2023-05-21T20:11:06.900Z,30.20
2023-05-21T20:16:10.451Z,30.44
2023-05-21T20:21:12.716Z,30.51
2023-05-21T20:26:15.413Z,30.86
2023-05-21T20:31:17.059Z,30.68
2023-05-21T20:36:21.080Z,30.67
2023-05-21T20:41:25.182Z,30.75
2023-05-21T20:46:28.062Z,30.92
2023-05-21T20:51:30.069Z,31.37
2023-05-21T20:56:41.489Z,31.67
2023-05-21T21:01:44.039Z,31.94
2023-05-21T21:06:46.597Z,31.82
2023-05-21T21:11:48.262Z,32.05
2023-05-21T21:16:51.794Z,32.04
2023-05-21T21:21:53.601Z,32.05
2023-05-21T21:26:55.237Z,32.18
2023-05-21T21:31:57.273Z,32.25
2023-05-21T21:36:58.807Z,32.40
2023-05-21T21:42:00.444Z,32.65
2023-05-21T21:47:01.984Z,32.88
2023-05-21T21:52:03.620Z,32.79
2023-05-21T21:57:05.553Z,33.10
2023-05-21T22:02:07.247Z,33.14
2023-05-21T22:07:10.707Z,33.35
2023-05-21T22:12:13.207Z,33.71
2023-05-21T22:17:17.867Z,33.84
2023-05-21T22:22:19.433Z,34.02
2023-05-21T22:27:21.152Z,34.19
2023-05-21T22:32:22.795Z,34.25
2023-05-21T22:37:26.105Z,34.43
2023-05-21T22:42:27.656Z,34.51
2023-05-21T22:47:29.227Z,34.55
2023-05-21T22:52:31.889Z,34.63
2023-05-21T22:57:33.427Z,34.80
2023-05-21T23:02:35.296Z,34.76
2023-05-21T23:07:36.920Z,35.33
2023-05-21T23:12:38.912Z,35.45
2023-05-21T23:17:40.492Z,35.78
2023-05-21T23:22:42.074Z,35.95
2023-05-21T23:27:43.645Z,36.23
2023-05-21T23:32:45.330Z,36.26
2023-05-21T23:37:46.839Z,36.41
2023-05-21T23:42:48.382Z,36.77
2023-05-21T23:47:49.924Z,36.89
2023-05-21T23:52:51.483Z,37.10
2023-05-21T23:57:53.103Z,37.52
